createdAt,value
2017-06-10T00:00:26.718Z,4.10
2017-06-10T00:03:00.997Z,5.13
2017-06-10T00:05:35.233Z,3.80
2017-06-10T00:08:09.536Z,4.60
2017-06-10T00:10:43.739Z,4.57
2017-06-10T00:13:17.940Z,4.50
2017-06-10T00:15:52.062Z,4.20
2017-06-10T00:21:41.604Z,4.00
2017-06-10T00:24:15.657Z,3.70
2017-06-10T00:26:49.821Z,4.00
2017-06-10T00:29:24.093Z,4.87
2017-06-10T00:31:58.322Z,4.00
2017-06-10T00:34:32.563Z,4.00
2017-06-10T00:37:06.800Z,4.27
2017-06-10T00:39:40.914Z,4.60
2017-06-10T00:45:29.854Z,3.97
2017-06-10T00:48:03.985Z,4.00
2017-06-10T00:53:53.276Z,6.60
2017-06-10T00:56:27.920Z,5.23
2017-06-10T00:59:02.209Z,4.70
2017-06-10T01:01:36.478Z,4.70
2017-06-10T01:04:10.711Z,4.53
2017-06-10T01:06:44.692Z,4.27
2017-06-10T01:09:18.917Z,4.00
2017-06-10T01:11:53.070Z,4.63
2017-06-10T01:17:42.785Z,5.17
2017-06-10T01:20:17.109Z,5.67
2017-06-10T01:22:51.289Z,5.60
2017-06-10T01:25:25.487Z,4.10
2017-06-10T01:27:59.779Z,4.77
2017-06-10T01:30:33.886Z,5.70
2017-06-10T01:33:08.128Z,5.97
2017-06-10T01:35:42.486Z,4.60
2017-06-10T01:44:47.063Z,4.93
2017-06-10T01:47:21.148Z,6.03
2017-06-10T01:49:55.338Z,6.67
2017-06-10T01:52:29.603Z,6.17
2017-06-10T01:55:03.849Z,5.40
2017-06-10T01:57:38.063Z,4.90
2017-06-10T02:00:12.281Z,8.77
2017-06-10T02:02:46.625Z,4.50
2017-06-10T02:05:20.838Z,5.13
2017-06-10T02:07:55.059Z,5.23
2017-06-10T02:10:29.376Z,5.50
2017-06-10T02:13:03.715Z,5.30
2017-06-10T02:15:37.886Z,4.90
2017-06-10T02:24:42.947Z,4.70
2017-06-10T02:27:17.124Z,5.47
2017-06-10T02:29:51.321Z,5.43
2017-06-10T02:32:25.390Z,4.77
2017-06-10T02:34:59.728Z,6.63
2017-06-10T02:37:33.872Z,4.83
2017-06-10T02:40:08.155Z,5.33
2017-06-10T02:42:42.407Z,5.23
2017-06-10T02:45:16.612Z,4.67
2017-06-10T02:47:50.750Z,6.07
2017-06-10T02:53:39.624Z,4.87
2017-06-10T02:56:13.788Z,3.30
2017-06-10T02:58:47.938Z,5.93
2017-06-10T03:04:36.816Z,3.63
2017-06-10T03:07:11.034Z,3.13
2017-06-10T03:09:45.159Z,7.57
2017-06-10T03:12:19.307Z,5.47
2017-06-10T03:14:53.492Z,2.93
2017-06-10T03:17:27.583Z,3.13
2017-06-10T03:20:01.760Z,2.50
2017-06-10T03:22:35.933Z,2.60
2017-06-10T03:25:10.211Z,2.40
2017-06-10T03:27:44.513Z,3.77
2017-06-10T03:36:49.153Z,2.50
2017-06-10T03:39:23.404Z,2.50
2017-06-10T03:41:57.645Z,2.50
2017-06-10T03:44:32.017Z,2.50
2017-06-10T03:47:06.402Z,1.93
2017-06-10T03:49:40.636Z,2.00
2017-06-10T03:52:14.877Z,2.07
2017-06-10T03:54:49.561Z,2.13
2017-06-10T03:57:23.906Z,1.90
2017-06-10T03:59:58.229Z,3.60
2017-06-10T04:02:32.389Z,2.00
2017-06-10T04:05:06.572Z,2.10
2017-06-10T04:07:40.785Z,2.17
2017-06-10T04:10:15.137Z,2.10
2017-06-10T04:16:04.256Z,2.00
2017-06-10T04:18:38.315Z,2.10
2017-06-10T04:24:27.137Z,2.10
2017-06-10T04:27:01.373Z,2.23
2017-06-10T04:29:35.497Z,2.50
2017-06-10T04:32:09.790Z,2.60
2017-06-10T04:34:43.888Z,2.20
2017-06-10T04:37:18.435Z,2.33
2017-06-10T04:39:52.750Z,4.07
2017-06-10T04:42:26.894Z,2.40
2017-06-10T04:45:01.138Z,2.57
2017-06-10T04:47:35.320Z,2.23
2017-06-10T04:56:39.559Z,2.40
2017-06-10T04:59:14.152Z,2.57
2017-06-10T05:01:48.322Z,2.30
2017-06-10T05:04:22.554Z,2.17
2017-06-10T05:06:56.710Z,6.23
2017-06-10T05:09:30.864Z,2.20
2017-06-10T05:12:05.076Z,2.10
2017-06-10T05:14:39.312Z,3.10
2017-06-10T05:17:13.562Z,2.23
2017-06-10T05:19:47.617Z,2.90
2017-06-10T05:28:52.536Z,2.20
2017-06-10T05:31:26.675Z,2.60
2017-06-10T05:34:00.741Z,2.70
2017-06-10T05:36:34.872Z,2.17
2017-06-10T05:39:08.994Z,2.57
2017-06-10T05:41:43.195Z,2.07
2017-06-10T05:44:17.388Z,2.73
2017-06-10T05:46:51.438Z,2.23
2017-06-10T05:49:25.613Z,2.57
2017-06-10T05:51:59.688Z,2.90
2017-06-10T05:54:33.702Z,2.47
2017-06-10T06:00:23.271Z,2.57
2017-06-10T06:02:57.395Z,3.73
2017-06-10T06:05:31.360Z,2.40
2017-06-10T06:08:05.439Z,2.53
2017-06-10T06:10:39.583Z,3.40
2017-06-10T06:13:13.806Z,2.50
2017-06-10T06:19:02.843Z,2.73
2017-06-10T06:21:36.968Z,2.73
2017-06-10T06:24:10.997Z,2.53
2017-06-10T06:26:45.101Z,2.53
2017-06-10T06:29:19.247Z,3.10
2017-06-10T06:31:53.318Z,3.17
2017-06-10T06:34:27.341Z,3.00
2017-06-10T06:37:01.529Z,2.67
2017-06-10T06:42:50.080Z,4.20
2017-06-10T06:45:24.276Z,2.67
2017-06-10T06:47:58.452Z,3.10
2017-06-10T06:53:47.384Z,3.40
2017-06-10T06:56:21.647Z,3.10
2017-06-10T06:58:56.056Z,2.60
2017-06-10T07:04:45.181Z,2.57
2017-06-10T07:07:19.407Z,3.20
2017-06-10T07:09:53.698Z,2.90
2017-06-10T07:12:27.886Z,3.63
2017-06-10T07:15:02.117Z,3.10
2017-06-10T07:17:36.317Z,3.10
2017-06-10T07:20:10.556Z,3.40
2017-06-10T07:22:44.678Z,3.00
2017-06-10T07:25:18.823Z,2.60
2017-06-10T07:27:52.947Z,3.90
2017-06-10T07:33:42.315Z,2.97
2017-06-10T07:36:16.390Z,3.10
2017-06-10T07:38:50.586Z,2.90
2017-06-10T07:44:39.242Z,2.53
2017-06-10T07:47:13.456Z,2.83
2017-06-10T07:49:47.632Z,3.20
2017-06-10T07:52:21.891Z,4.80
2017-06-10T07:54:56.079Z,2.73
2017-06-10T07:57:30.180Z,2.30
2017-06-10T08:00:04.299Z,2.40
2017-06-10T08:02:38.481Z,2.37
2017-06-10T08:05:12.620Z,2.40
2017-06-10T08:07:46.636Z,2.10
2017-06-10T08:10:20.808Z,2.10
2017-06-10T08:12:54.863Z,2.00
2017-06-10T08:15:29.092Z,3.00
2017-06-10T08:24:32.913Z,2.50
2017-06-10T08:27:07.230Z,5.30
2017-06-10T08:29:41.277Z,3.97
2017-06-10T08:32:15.594Z,2.57
2017-06-10T08:34:49.780Z,2.47
2017-06-10T08:40:38.610Z,3.17
2017-06-10T08:43:12.948Z,2.73
2017-06-10T08:45:47.007Z,2.60
2017-06-10T08:48:21.251Z,2.70
2017-06-10T08:50:55.867Z,5.83
2017-06-10T08:53:30.126Z,2.90
2017-06-10T08:56:04.355Z,3.20
2017-06-10T08:58:38.604Z,3.17
2017-06-10T09:04:27.188Z,3.00
2017-06-10T09:07:01.361Z,3.03
2017-06-10T09:09:35.588Z,2.50
2017-06-10T09:12:09.575Z,2.80
2017-06-10T09:14:43.821Z,2.47
2017-06-10T09:17:17.932Z,2.97
2017-06-10T09:19:52.236Z,2.53
2017-06-10T09:22:26.472Z,2.50
2017-06-10T09:25:00.542Z,2.80
2017-06-10T09:27:34.694Z,2.60
2017-06-10T09:33:23.759Z,3.20
2017-06-10T09:35:57.875Z,2.77
2017-06-10T09:38:32.076Z,2.90
2017-06-10T09:44:21.349Z,2.70
2017-06-10T09:46:55.527Z,2.70
2017-06-10T09:49:29.717Z,4.30
2017-06-10T09:52:04.059Z,2.33
2017-06-10T09:54:38.271Z,2.83
2017-06-10T09:57:12.424Z,2.20
2017-06-10T09:59:46.584Z,2.60
2017-06-10T10:08:51.323Z,2.67
2017-06-10T10:11:25.525Z,2.80
2017-06-10T10:13:59.616Z,2.50
2017-06-10T10:16:33.835Z,2.47
2017-06-10T10:19:07.909Z,2.80
2017-06-10T10:21:42.058Z,2.60
2017-06-10T10:24:16.252Z,2.80
2017-06-10T10:26:50.368Z,2.90
2017-06-10T10:29:24.541Z,2.60
2017-06-10T10:31:58.652Z,2.57
2017-06-10T10:34:32.642Z,3.13
2017-06-10T10:37:06.865Z,3.93
2017-06-10T10:39:40.983Z,2.70
2017-06-10T10:42:15.152Z,3.00
2017-06-10T10:44:49.268Z,2.53
2017-06-10T10:53:52.660Z,3.43
2017-06-10T10:56:26.712Z,3.13
2017-06-10T10:59:00.844Z,3.00
2017-06-10T11:04:50.130Z,2.90
2017-06-10T11:07:24.433Z,2.83
2017-06-10T11:09:58.978Z,2.57
2017-06-10T11:12:33.236Z,2.53
2017-06-10T11:15:07.302Z,2.50
2017-06-10T11:17:41.467Z,2.63
2017-06-10T11:20:15.548Z,2.53
2017-06-10T11:22:49.715Z,3.70
2017-06-10T11:25:24.039Z,2.67
2017-06-10T11:27:58.145Z,2.73
2017-06-10T11:30:32.208Z,2.60
2017-06-10T11:33:06.317Z,2.70
2017-06-10T11:35:40.361Z,2.50
2017-06-10T11:38:14.532Z,2.70
2017-06-10T11:40:48.650Z,2.70
2017-06-10T11:43:22.785Z,2.90
2017-06-10T11:45:56.914Z,2.60
2017-06-10T11:48:31.304Z,2.43
2017-06-10T11:51:05.464Z,2.50
2017-06-10T11:53:40.928Z,2.80
2017-06-10T11:56:15.286Z,2.40
2017-06-10T11:58:49.297Z,2.70
2017-06-10T12:01:23.377Z,3.00
2017-06-10T12:03:57.463Z,2.40
2017-06-10T12:06:31.718Z,3.00
2017-06-10T12:09:05.797Z,3.20
2017-06-10T12:11:39.923Z,3.60
2017-06-10T12:14:14.144Z,2.50
2017-06-10T12:16:48.193Z,2.60
2017-06-10T12:19:22.353Z,3.00
2017-06-10T12:21:56.607Z,2.67
2017-06-10T12:24:30.868Z,2.53
2017-06-10T12:27:04.969Z,4.17
2017-06-10T12:29:39.148Z,2.70
2017-06-10T12:32:13.348Z,2.80
2017-06-10T12:34:47.581Z,2.70
2017-06-10T12:37:21.751Z,4.13
2017-06-10T12:39:55.803Z,2.60
2017-06-10T13:05:24.078Z,3.07
2017-06-10T13:07:58.256Z,3.10
2017-06-10T13:10:32.437Z,3.03
2017-06-10T13:13:06.579Z,3.40
2017-06-10T13:15:40.690Z,10.37
2017-06-10T13:18:14.973Z,3.53
2017-06-10T13:20:49.265Z,3.20
2017-06-10T13:23:23.510Z,3.57
2017-06-10T13:26:04.418Z,3.00
2017-06-10T13:28:38.655Z,3.20
2017-06-10T13:31:14.014Z,6.60
2017-06-10T13:33:48.319Z,2.70
2017-06-10T13:36:22.624Z,3.07
2017-06-10T13:38:56.646Z,2.97
2017-06-10T13:41:31.040Z,2.77
2017-06-10T13:44:05.061Z,3.13
2017-06-10T13:46:39.162Z,2.93
2017-06-10T13:49:14.674Z,2.90
2017-06-10T13:51:48.802Z,3.10
2017-06-10T13:54:23.148Z,2.87
2017-06-10T13:56:57.384Z,2.83
2017-06-10T13:59:31.725Z,2.70
2017-06-10T14:02:05.864Z,3.00
2017-06-10T14:04:40.032Z,2.87
2017-06-10T14:07:14.306Z,2.67
2017-06-10T14:09:48.557Z,2.73
2017-06-10T14:12:22.720Z,3.20
2017-06-10T14:14:56.805Z,2.83
2017-06-10T14:17:30.995Z,3.83
2017-06-10T14:20:05.153Z,3.50
2017-06-10T14:22:39.349Z,3.20
2017-06-10T14:25:20.383Z,3.23
2017-06-10T14:27:54.384Z,2.93
2017-06-10T14:30:28.485Z,2.50
2017-06-10T14:33:02.652Z,2.80
2017-06-10T14:35:36.744Z,2.80
2017-06-10T14:38:11.069Z,2.60
2017-06-10T14:40:45.181Z,2.90
2017-06-10T14:43:19.371Z,3.27
2017-06-10T14:45:53.409Z,3.17
2017-06-10T14:48:27.643Z,3.00
2017-06-10T14:51:01.836Z,5.13
2017-06-10T14:53:35.967Z,3.20
2017-06-10T14:56:10.089Z,3.10
2017-06-10T14:58:44.186Z,3.03
2017-06-10T15:01:18.436Z,2.87
2017-06-10T15:03:52.576Z,3.03
2017-06-10T15:06:26.633Z,3.50
2017-06-10T15:09:00.944Z,2.97
2017-06-10T15:11:35.172Z,3.43
2017-06-10T15:14:09.352Z,2.77
2017-06-10T15:16:43.570Z,3.10
2017-06-10T15:19:17.816Z,2.93
2017-06-10T15:21:52.021Z,3.00
2017-06-10T15:24:26.391Z,3.30
2017-06-10T15:27:00.664Z,2.70
2017-06-10T15:29:34.800Z,2.60
2017-06-10T15:32:08.917Z,2.83
2017-06-10T15:34:42.970Z,3.10
2017-06-10T15:37:17.020Z,3.10
2017-06-10T15:39:51.189Z,4.13
2017-06-10T15:42:25.398Z,3.07
2017-06-10T15:44:59.458Z,3.00
2017-06-10T15:47:33.680Z,3.27
2017-06-10T15:50:07.859Z,2.70
2017-06-10T15:52:41.872Z,3.10
2017-06-10T15:55:15.978Z,7.40
2017-06-10T15:57:49.997Z,4.47
2017-06-10T16:00:24.187Z,5.20
2017-06-10T16:02:58.250Z,3.33
2017-06-10T16:05:32.475Z,3.10
2017-06-10T16:08:06.537Z,4.60
2017-06-10T16:10:40.708Z,2.87
2017-06-10T16:13:14.974Z,3.63
2017-06-10T16:15:49.001Z,5.90
2017-06-10T16:18:23.107Z,3.73
2017-06-10T16:20:57.328Z,2.87
2017-06-10T16:23:31.505Z,3.13
2017-06-10T16:26:05.601Z,2.90
2017-06-10T16:28:39.940Z,3.77
2017-06-10T16:31:14.157Z,4.30
2017-06-10T16:33:48.225Z,3.53
2017-06-10T16:36:22.398Z,2.83
2017-06-10T16:38:56.462Z,3.03
2017-06-10T16:41:30.679Z,3.30
2017-06-10T16:44:04.897Z,2.87
2017-06-10T16:46:39.118Z,2.90
2017-06-10T16:49:13.344Z,2.70
2017-06-10T16:51:47.512Z,3.50
2017-06-10T16:54:21.815Z,3.03
2017-06-10T16:56:56.084Z,3.10
2017-06-10T16:59:30.337Z,3.53
2017-06-10T17:02:04.454Z,2.57
2017-06-10T17:04:38.588Z,4.00
2017-06-10T17:07:12.792Z,3.30
2017-06-10T17:09:46.939Z,3.00
2017-06-10T17:12:21.082Z,4.50
2017-06-10T17:14:55.278Z,3.20
2017-06-10T17:17:29.399Z,3.20
2017-06-10T17:20:03.596Z,3.40
2017-06-10T17:22:37.814Z,3.27
2017-06-10T17:25:12.060Z,2.90
2017-06-10T17:27:46.300Z,3.50
2017-06-10T17:30:20.696Z,3.20
2017-06-10T17:32:54.784Z,3.03
2017-06-10T17:35:29.125Z,3.87
2017-06-10T17:38:03.227Z,3.20
2017-06-10T17:40:37.322Z,2.83
2017-06-10T17:43:11.672Z,2.70
2017-06-10T17:45:45.993Z,2.90
2017-06-10T17:48:20.236Z,3.27
2017-06-10T17:50:54.485Z,3.20
2017-06-10T17:53:28.565Z,3.30
2017-06-10T17:56:02.723Z,3.10
2017-06-10T17:58:36.860Z,3.10
2017-06-10T18:01:11.493Z,2.97
2017-06-10T18:03:45.914Z,3.40
2017-06-10T18:06:20.462Z,3.50
2017-06-10T18:08:54.703Z,3.20
2017-06-10T18:11:28.890Z,3.40
2017-06-10T18:14:03.189Z,3.53
2017-06-10T18:16:37.417Z,3.07
2017-06-10T18:19:11.569Z,2.90
2017-06-10T18:21:45.869Z,3.43
2017-06-10T18:24:20.216Z,3.67
2017-06-10T18:27:10.333Z,3.23
2017-06-10T18:29:44.582Z,3.30
2017-06-10T18:32:18.736Z,4.27
2017-06-10T18:34:52.875Z,3.23
2017-06-10T18:37:27.060Z,3.33
2017-06-10T18:40:01.310Z,3.53
2017-06-10T18:42:35.519Z,3.40
2017-06-10T18:45:09.638Z,3.20
2017-06-10T18:47:43.838Z,3.33
2017-06-10T18:50:18.086Z,3.40
2017-06-10T18:52:52.220Z,3.60
2017-06-10T18:55:26.345Z,3.90
2017-06-10T18:58:00.698Z,3.80
2017-06-10T19:00:34.835Z,3.63
2017-06-10T19:03:09.107Z,3.70
2017-06-10T19:05:43.314Z,4.30
2017-06-10T19:08:17.464Z,4.00
2017-06-10T19:10:51.673Z,4.07
2017-06-10T19:13:25.792Z,3.90
2017-06-10T19:16:00.005Z,4.00
2017-06-10T19:18:34.066Z,3.73
2017-06-10T19:21:08.441Z,3.57
2017-06-10T19:23:42.606Z,5.53
2017-06-10T19:26:16.840Z,4.20
2017-06-10T19:28:51.073Z,3.60
2017-06-10T19:31:25.290Z,3.90
2017-06-10T19:33:59.432Z,3.37
2017-06-10T19:36:33.599Z,3.40
2017-06-10T19:39:14.796Z,3.80
2017-06-10T19:41:49.059Z,4.10
2017-06-10T19:44:23.425Z,4.30
2017-06-10T19:46:57.632Z,4.50
2017-06-10T19:49:31.849Z,4.13
2017-06-10T19:52:06.060Z,3.87
2017-06-10T19:54:40.314Z,4.00
2017-06-10T19:57:14.580Z,4.03
2017-06-10T19:59:48.881Z,3.93
2017-06-10T20:02:23.202Z,4.70
2017-06-10T20:04:57.268Z,4.17
2017-06-10T20:07:31.567Z,5.83
2017-06-10T20:10:05.699Z,4.23
2017-06-10T20:12:39.968Z,3.80
2017-06-10T20:15:14.210Z,4.60
2017-06-10T20:17:48.395Z,4.10
2017-06-10T20:20:22.578Z,4.30
2017-06-10T20:22:56.884Z,4.40
2017-06-10T20:25:31.361Z,4.80
2017-06-10T20:28:06.478Z,4.50
2017-06-10T20:30:40.792Z,3.40
2017-06-10T20:33:14.941Z,3.90
2017-06-10T20:35:49.046Z,3.77
2017-06-10T20:38:23.400Z,3.80
2017-06-10T20:40:57.532Z,3.90
2017-06-10T20:43:31.831Z,4.20
2017-06-10T20:46:05.966Z,4.20
2017-06-10T20:48:40.152Z,4.60
2017-06-10T20:51:14.437Z,3.87
2017-06-10T20:53:48.750Z,4.40
2017-06-10T20:56:23.046Z,4.50
2017-06-10T20:58:57.281Z,4.10
2017-06-10T21:01:31.469Z,4.37
2017-06-10T21:04:05.728Z,3.77
2017-06-10T21:06:40.052Z,4.43
2017-06-10T21:09:14.233Z,4.23
2017-06-10T21:11:48.537Z,3.80
2017-06-10T21:14:22.898Z,4.37
2017-06-10T21:16:57.110Z,4.13
2017-06-10T21:19:31.442Z,4.20
2017-06-10T21:22:05.538Z,4.07
2017-06-10T21:24:39.649Z,4.40
2017-06-10T21:27:13.889Z,4.60
2017-06-10T21:29:48.308Z,3.63
2017-06-10T21:32:22.481Z,6.00
2017-06-10T21:34:56.923Z,4.17
2017-06-10T21:37:30.986Z,4.50
2017-06-10T21:40:05.264Z,4.20
2017-06-10T21:42:39.571Z,5.00
2017-06-10T21:45:13.777Z,3.93
2017-06-10T21:47:47.914Z,4.43
2017-06-10T21:50:22.037Z,4.20
2017-06-10T21:52:56.279Z,4.30
2017-06-10T21:55:30.486Z,4.30
2017-06-10T21:58:04.526Z,9.33
2017-06-10T22:00:38.817Z,5.00
2017-06-10T22:03:12.993Z,5.87
2017-06-10T22:05:47.215Z,5.00
2017-06-10T22:08:21.501Z,4.37
2017-06-10T22:10:55.578Z,4.93
2017-06-10T22:13:29.784Z,4.60
2017-06-10T22:16:03.945Z,4.77
2017-06-10T22:18:38.097Z,4.43
2017-06-10T22:21:12.398Z,5.83
2017-06-10T22:23:46.602Z,5.20
2017-06-10T22:26:21.025Z,5.30
2017-06-10T22:28:55.334Z,5.03
2017-06-10T22:31:29.422Z,5.60
2017-06-10T22:34:03.653Z,5.77
2017-06-10T22:36:40.773Z,6.10
2017-06-10T22:39:15.026Z,5.27
2017-06-10T22:41:49.244Z,4.57
2017-06-10T22:44:23.350Z,4.37
2017-06-10T22:46:57.658Z,4.80
2017-06-10T22:49:32.060Z,5.50
2017-06-10T22:52:06.398Z,5.13
2017-06-10T22:54:40.500Z,4.80
2017-06-10T22:57:14.788Z,4.47
2017-06-10T22:59:48.975Z,4.80
2017-06-10T23:02:23.059Z,4.87
2017-06-10T23:04:57.368Z,6.47
2017-06-10T23:07:31.541Z,5.30
2017-06-10T23:10:05.785Z,4.60
2017-06-10T23:12:39.958Z,5.10
2017-06-10T23:15:14.161Z,6.90
2017-06-10T23:17:48.342Z,6.03
2017-06-10T23:20:22.494Z,4.90
2017-06-10T23:22:56.673Z,5.13
2017-06-10T23:25:30.913Z,5.47
2017-06-10T23:28:05.031Z,5.33
2017-06-10T23:30:39.276Z,4.97
2017-06-10T23:33:13.520Z,5.23
2017-06-10T23:35:47.726Z,5.50
2017-06-10T23:38:22.059Z,4.70
2017-06-10T23:40:56.120Z,5.20
2017-06-10T23:43:30.333Z,4.80
2017-06-10T23:46:04.737Z,5.43
2017-06-10T23:48:38.997Z,5.63
2017-06-10T23:51:13.263Z,5.20
2017-06-10T23:53:47.565Z,4.83
2017-06-10T23:56:21.760Z,5.50
2017-06-10T23:58:55.932Z,5.03
